createdAt,value
2022-12-19T00:01:35.361Z,19.77
2022-12-19T00:04:08.201Z,21.23
2022-12-19T00:06:35.847Z,19.60
2022-12-19T00:09:02.560Z,19.38
2022-12-19T00:11:29.629Z,20.48
2022-12-19T00:13:56.828Z,21.88
2022-12-19T00:16:25.594Z,20.90
2022-12-19T00:18:55.260Z,20.17
2022-12-19T00:21:24.165Z,20.92
2022-12-19T00:23:53.375Z,20.40
2022-12-19T00:26:22.783Z,20.17
2022-12-19T00:28:51.876Z,21.95
2022-12-19T00:31:19.793Z,20.08
2022-12-19T00:33:47.541Z,21.10
2022-12-19T00:36:22.999Z,20.80
2022-12-19T00:38:51.561Z,21.85
2022-12-19T00:41:24.932Z,20.55
2022-12-19T00:44:05.512Z,20.00
2022-12-19T00:46:34.659Z,20.58
2022-12-19T00:49:01.472Z,21.08
2022-12-19T00:51:30.272Z,20.92
2022-12-19T00:53:57.513Z,20.15
2022-12-19T00:56:27.593Z,19.40
2022-12-19T00:58:54.732Z,19.67
2022-12-19T01:01:27.307Z,19.80
2022-12-19T01:04:26.558Z,19.20
2022-12-19T01:06:41.166Z,20.35
2022-12-19T01:09:09.663Z,20.42
2022-12-19T01:11:54.726Z,20.05
2022-12-19T01:14:23.273Z,19.40
2022-12-19T01:16:50.976Z,20.63
2022-12-19T01:19:17.731Z,19.27
2022-12-19T01:21:44.404Z,20.27
2022-12-19T01:24:11.516Z,19.92
2022-12-19T01:26:38.299Z,21.42
2022-12-19T01:29:05.386Z,18.10
2022-12-19T01:31:33.620Z,18.83
2022-12-19T01:34:01.389Z,18.45
2022-12-19T01:36:28.711Z,19.00
2022-12-19T01:38:58.694Z,19.52
2022-12-19T01:41:25.629Z,18.05
2022-12-19T01:44:10.527Z,18.85
2022-12-19T01:46:38.769Z,20.83
2022-12-19T01:49:06.640Z,19.73
2022-12-19T01:51:41.680Z,18.95
2022-12-19T01:54:10.194Z,20.47
2022-12-19T01:56:40.226Z,19.08
2022-12-19T01:59:17.219Z,19.38
2022-12-19T02:01:51.231Z,20.45
2022-12-19T02:04:19.188Z,18.48
2022-12-19T02:06:46.038Z,19.70
2022-12-19T02:09:12.763Z,19.13
2022-12-19T02:11:39.430Z,18.45
2022-12-19T02:14:06.137Z,19.25
2022-12-19T02:16:54.013Z,19.27
2022-12-19T02:19:26.664Z,19.65
2022-12-19T02:21:58.483Z,18.35
2022-12-19T02:24:48.348Z,19.25
2022-12-19T02:28:06.073Z,19.75
2022-12-19T02:30:57.671Z,19.52
2022-12-19T02:33:37.805Z,20.20
2022-12-19T02:36:11.642Z,20.83
2022-12-19T02:39:03.676Z,17.75
2022-12-19T02:41:45.365Z,20.05
2022-12-19T02:44:17.561Z,20.50
2022-12-19T02:46:44.242Z,19.43
2022-12-19T02:49:12.157Z,19.38
2022-12-19T02:51:43.812Z,20.47
2022-12-19T02:54:10.532Z,20.40
2022-12-19T02:56:40.645Z,21.10
2022-12-19T02:59:13.370Z,21.45
2022-12-19T03:01:58.921Z,21.17
2022-12-19T03:04:34.827Z,21.25
2022-12-19T03:07:06.334Z,20.80
2022-12-19T03:09:45.775Z,21.08
2022-12-19T03:12:17.658Z,19.48
2022-12-19T03:14:44.897Z,20.73
2022-12-19T03:17:11.600Z,19.95
2022-12-19T03:19:39.505Z,21.77
2022-12-19T03:22:07.259Z,20.83
2022-12-19T03:24:33.960Z,21.52
2022-12-19T03:27:08.333Z,21.10
2022-12-19T03:29:54.261Z,20.92
2022-12-19T03:32:22.328Z,20.90
2022-12-19T03:34:58.121Z,21.38
2022-12-19T03:37:27.952Z,21.08
2022-12-19T03:39:56.023Z,19.63
2022-12-19T03:42:41.875Z,19.63
2022-12-19T03:45:08.617Z,20.40
2022-12-19T03:47:39.712Z,20.83
2022-12-19T03:50:06.859Z,20.77
2022-12-19T03:52:56.853Z,20.17
2022-12-19T03:55:31.328Z,20.52
2022-12-19T03:58:05.057Z,20.33
2022-12-19T04:00:31.731Z,20.20
2022-12-19T04:02:58.417Z,20.88
2022-12-19T04:05:26.735Z,20.17
2022-12-19T04:07:55.753Z,20.95
2022-12-19T04:10:24.219Z,21.20
2022-12-19T04:13:03.413Z,22.65
2022-12-19T04:15:40.298Z,21.77
2022-12-19T04:18:07.027Z,20.30
2022-12-19T04:20:34.573Z,20.52
2022-12-19T04:23:08.241Z,19.85
2022-12-19T04:25:39.225Z,19.77
2022-12-19T04:28:08.265Z,19.23
2022-12-19T04:30:36.798Z,19.85
2022-12-19T04:33:03.946Z,20.52
2022-12-19T04:35:30.636Z,19.25
2022-12-19T04:37:57.318Z,20.67
2022-12-19T04:40:23.982Z,20.35
2022-12-19T04:42:50.687Z,20.20
2022-12-19T04:45:17.367Z,20.70
2022-12-19T04:47:44.052Z,21.30
2022-12-19T04:50:10.950Z,20.27
2022-12-19T04:52:37.688Z,20.95
2022-12-19T04:55:04.713Z,21.00
2022-12-19T04:57:31.878Z,21.23
2022-12-19T04:59:58.768Z,21.08
2022-12-19T05:02:25.781Z,21.38
2022-12-19T05:04:52.632Z,21.15
2022-12-19T05:07:19.301Z,21.48
2022-12-19T05:09:46.168Z,19.38
2022-12-19T05:12:12.936Z,21.08
2022-12-19T05:14:39.613Z,20.75
2022-12-19T05:17:06.740Z,19.88
2022-12-19T05:19:33.425Z,19.80
2022-12-19T05:22:00.118Z,20.92
2022-12-19T05:24:27.718Z,21.05
2022-12-19T05:26:54.547Z,18.83
2022-12-19T05:29:21.490Z,19.50
2022-12-19T05:31:48.194Z,20.23
2022-12-19T05:34:15.110Z,19.38
2022-12-19T05:36:41.998Z,19.38
2022-12-19T05:39:08.764Z,19.02
2022-12-19T05:41:35.484Z,18.00
2022-12-19T05:44:03.189Z,20.45
2022-12-19T05:46:29.877Z,18.52
2022-12-19T05:48:56.737Z,19.83
2022-12-19T05:51:23.968Z,19.67
2022-12-19T05:53:50.868Z,18.73
2022-12-19T05:56:26.273Z,19.45
2022-12-19T05:58:53.194Z,22.08
2022-12-19T06:01:22.373Z,23.88
2022-12-19T06:03:49.365Z,23.77
2022-12-19T06:06:21.304Z,20.67
2022-12-19T06:08:48.024Z,21.52
2022-12-19T06:11:18.522Z,18.60
2022-12-19T06:13:45.257Z,20.73
2022-12-19T06:16:17.736Z,19.40
2022-12-19T06:18:45.677Z,19.20
2022-12-19T06:21:17.662Z,19.20
2022-12-19T06:23:44.509Z,20.45
2022-12-19T06:26:18.349Z,19.45
2022-12-19T06:28:45.895Z,19.30
2022-12-19T06:31:13.093Z,19.50
2022-12-19T06:33:39.905Z,19.15
2022-12-19T06:36:27.112Z,19.55
2022-12-19T06:38:54.592Z,18.55
2022-12-19T06:41:40.173Z,20.23
2022-12-19T06:44:09.113Z,19.80
2022-12-19T06:46:36.757Z,20.45
2022-12-19T06:49:03.765Z,19.40
2022-12-19T06:51:30.827Z,18.67
2022-12-19T06:53:57.587Z,19.65
2022-12-19T06:56:24.834Z,20.90
2022-12-19T06:58:51.703Z,19.35
2022-12-19T07:01:22.485Z,19.88
2022-12-19T07:03:49.243Z,19.80
2022-12-19T07:06:16.044Z,20.17
2022-12-19T07:08:42.807Z,19.80
2022-12-19T07:11:09.492Z,19.70
2022-12-19T07:13:36.191Z,19.30
2022-12-19T07:16:03.639Z,19.35
2022-12-19T07:18:31.491Z,19.08
2022-12-19T07:20:58.244Z,19.10
2022-12-19T07:23:24.947Z,18.20
2022-12-19T07:25:51.859Z,19.35
2022-12-19T07:28:18.602Z,19.52
2022-12-19T07:30:45.507Z,19.08
2022-12-19T07:33:15.622Z,20.60
2022-12-19T07:35:45.098Z,19.17
2022-12-19T07:38:12.116Z,18.10
2022-12-19T07:40:38.803Z,19.85
2022-12-19T07:43:06.617Z,19.33
2022-12-19T07:45:34.323Z,19.42
2022-12-19T07:48:01.982Z,19.00
2022-12-19T07:50:29.708Z,19.77
2022-12-19T07:52:57.638Z,18.38
2022-12-19T07:55:27.795Z,17.80
2022-12-19T07:57:55.708Z,18.55
2022-12-19T08:00:23.088Z,18.10
2022-12-19T08:02:49.867Z,16.20
2022-12-19T08:05:16.808Z,18.63
2022-12-19T08:07:43.482Z,17.88
2022-12-19T08:10:12.598Z,18.77
2022-12-19T08:12:39.570Z,18.60
2022-12-19T08:15:07.486Z,18.85
2022-12-19T08:17:35.311Z,17.75
2022-12-19T08:20:02.192Z,20.25
2022-12-19T08:22:30.349Z,17.48
2022-12-19T08:24:57.834Z,17.92
2022-12-19T08:27:24.681Z,17.65
2022-12-19T08:29:51.418Z,16.67
2022-12-19T08:32:21.223Z,18.10
2022-12-19T08:34:49.993Z,17.33
2022-12-19T08:37:17.471Z,17.73
2022-12-19T08:39:44.809Z,17.50
2022-12-19T08:42:14.858Z,18.00
2022-12-19T08:44:41.715Z,16.13
2022-12-19T08:47:09.726Z,17.65
2022-12-19T08:49:36.437Z,17.13
2022-12-19T08:52:05.602Z,16.27
2022-12-19T08:54:32.310Z,17.52
2022-12-19T08:56:59.143Z,19.00
2022-12-19T08:59:30.811Z,15.68
2022-12-19T09:01:59.415Z,16.48
2022-12-19T09:05:10.790Z,17.70
2022-12-19T09:07:23.181Z,17.45
2022-12-19T09:09:51.093Z,18.58
2022-12-19T09:12:24.747Z,17.52
2022-12-19T09:15:12.449Z,17.95
2022-12-19T09:17:39.898Z,17.77
2022-12-19T09:20:51.611Z,16.45
2022-12-19T09:23:26.778Z,16.80
2022-12-19T09:25:57.784Z,14.95
2022-12-19T09:28:40.833Z,16.25
2022-12-19T09:31:12.140Z,16.00
2022-12-19T09:33:43.447Z,17.25
2022-12-19T09:36:18.895Z,16.80
2022-12-19T09:38:45.790Z,18.23
2022-12-19T09:41:27.530Z,16.73
2022-12-19T09:44:15.732Z,15.85
2022-12-19T09:46:51.487Z,15.60
2022-12-19T09:49:23.962Z,15.85
2022-12-19T09:52:30.222Z,14.88
2022-12-19T09:55:17.417Z,15.43
2022-12-19T09:57:50.180Z,15.73
2022-12-19T10:00:21.556Z,15.48
2022-12-19T10:03:14.777Z,15.68
2022-12-19T10:07:11.013Z,17.40
2022-12-19T10:08:53.781Z,15.18
2022-12-19T10:12:44.932Z,15.02
2022-12-19T10:14:26.506Z,15.15
2022-12-19T10:17:24.799Z,14.75
2022-12-19T10:20:17.158Z,14.75
2022-12-19T10:23:02.349Z,14.43
2022-12-19T10:25:29.402Z,14.57
2022-12-19T10:28:16.991Z,14.05
2022-12-19T10:30:49.760Z,13.65
2022-12-19T10:33:20.299Z,13.88
2022-12-19T10:35:49.488Z,12.70
2022-12-19T10:38:22.797Z,13.40
2022-12-19T10:40:54.230Z,13.88
2022-12-19T10:43:44.401Z,14.85
2022-12-19T10:46:16.428Z,13.73
2022-12-19T10:48:43.202Z,15.32
2022-12-19T10:51:14.178Z,14.48
2022-12-19T10:53:41.012Z,13.50
2022-12-19T10:56:21.916Z,14.05
2022-12-19T10:58:52.129Z,14.57
2022-12-19T11:01:27.585Z,15.02
2022-12-19T11:04:28.687Z,13.80
2022-12-19T11:07:19.640Z,13.68
2022-12-19T11:09:50.652Z,13.85
2022-12-19T11:15:27.485Z,14.27
2022-12-19T11:19:19.803Z,14.73
2022-12-19T11:26:19.645Z,13.05
2022-12-19T11:28:19.152Z,13.35
2022-12-19T11:29:46.627Z,13.52
2022-12-19T11:30:09.322Z,13.48
2022-12-19T11:32:41.456Z,12.60
2022-12-19T11:35:25.288Z,14.88
2022-12-19T11:38:06.841Z,14.15
2022-12-19T11:40:49.174Z,13.15
2022-12-19T11:43:49.554Z,13.52
2022-12-19T11:46:22.048Z,13.45
2022-12-19T11:49:27.819Z,13.05
2022-12-19T11:53:02.404Z,13.05
2022-12-19T11:55:16.085Z,12.60
2022-12-19T11:57:42.919Z,13.82
2022-12-19T12:00:27.748Z,13.63
2022-12-19T12:03:09.633Z,12.95
2022-12-19T12:05:49.891Z,13.80
2022-12-19T12:09:22.968Z,13.50
2022-12-19T12:18:03.075Z,13.63
2022-12-19T12:23:35.281Z,13.18
2022-12-19T12:29:54.680Z,13.55
2022-12-19T12:31:11.208Z,12.85
2022-12-19T12:31:15.662Z,12.95
2022-12-19T12:31:53.472Z,14.02
2022-12-19T12:32:05.787Z,13.27
2022-12-19T12:35:33.128Z,12.60
2022-12-19T12:39:18.036Z,12.48
2022-12-19T12:42:05.160Z,11.82
2022-12-19T12:44:45.567Z,12.85
2022-12-19T12:47:30.595Z,13.38
2022-12-19T12:50:05.302Z,12.57
2022-12-19T12:52:41.328Z,13.10
2022-12-19T12:55:26.759Z,12.55
2022-12-19T12:57:56.687Z,13.13
2022-12-19T13:00:32.115Z,12.52
2022-12-19T13:03:12.303Z,13.57
2022-12-19T13:05:55.870Z,12.82
2022-12-19T13:08:41.219Z,14.15
2022-12-19T13:11:36.926Z,12.57
2022-12-19T13:14:06.977Z,12.55
2022-12-19T13:16:46.530Z,12.73
2022-12-19T13:19:25.805Z,13.18
2022-12-19T13:22:05.073Z,12.68
2022-12-19T13:24:50.768Z,13.70
2022-12-19T13:27:21.316Z,12.35
2022-12-19T13:29:57.585Z,13.38
2022-12-19T13:32:25.049Z,13.43
2022-12-19T13:35:06.264Z,12.70
2022-12-19T13:40:01.897Z,14.20
2022-12-19T13:41:01.289Z,14.02
2022-12-19T13:43:46.959Z,13.02
2022-12-19T13:46:40.286Z,13.93
2022-12-19T13:49:10.419Z,14.38
2022-12-19T13:51:47.922Z,13.05
2022-12-19T13:54:23.116Z,14.43
2022-12-19T13:56:52.095Z,12.15
2022-12-19T13:59:19.911Z,12.45
2022-12-19T14:01:47.287Z,12.50
2022-12-19T14:04:34.820Z,12.45
2022-12-19T14:07:04.927Z,11.85
2022-12-19T14:11:28.399Z,11.55
2022-12-19T14:13:45.861Z,12.15
2022-12-19T14:15:34.898Z,11.85
2022-12-19T14:18:43.096Z,11.45
2022-12-19T14:22:04.564Z,12.10
2022-12-19T14:24:18.200Z,13.20
2022-12-19T14:28:21.189Z,13.38
2022-12-19T14:30:27.605Z,13.10
2022-12-19T14:33:46.020Z,13.15
2022-12-19T14:36:10.367Z,13.25
2022-12-19T14:39:19.430Z,12.98
2022-12-19T14:41:08.012Z,14.65
2022-12-19T14:43:56.742Z,12.57
2022-12-19T14:53:51.488Z,13.80
2022-12-19T14:54:01.592Z,13.57
2022-12-19T14:54:37.066Z,13.40
2022-12-19T14:56:08.173Z,14.52
2022-12-19T14:58:52.515Z,13.77
2022-12-19T15:01:27.207Z,13.82
2022-12-19T15:04:51.738Z,14.27
2022-12-19T15:07:10.097Z,14.10
2022-12-19T15:11:03.466Z,14.77
2022-12-19T15:14:50.605Z,13.50
2022-12-19T15:16:01.628Z,13.65
2022-12-19T15:18:39.560Z,13.20
2022-12-19T15:21:08.537Z,16.63
2022-12-19T15:23:35.193Z,16.13
2022-12-19T15:26:06.220Z,16.05
2022-12-19T15:28:41.843Z,15.90
2022-12-19T15:31:28.814Z,16.27
2022-12-19T15:36:42.671Z,15.23
2022-12-19T15:39:09.377Z,15.50
2022-12-19T15:41:36.020Z,15.23
2022-12-19T15:44:31.396Z,15.68
2022-12-19T15:46:59.156Z,16.70
2022-12-19T15:49:26.294Z,16.40
2022-12-19T15:51:53.380Z,16.80
2022-12-19T15:57:09.378Z,17.80
2022-12-19T15:59:38.543Z,17.63
2022-12-19T16:02:18.214Z,17.05
2022-12-19T16:04:45.857Z,17.58
2022-12-19T16:07:21.799Z,18.23
2022-12-19T16:09:48.890Z,19.00
2022-12-19T16:12:21.089Z,19.13
2022-12-19T16:14:49.768Z,24.43
2022-12-19T16:17:20.191Z,19.83
2022-12-19T16:19:47.011Z,17.52
2022-12-19T16:22:22.647Z,18.40
2022-12-19T16:24:50.454Z,16.58
2022-12-19T16:27:35.741Z,16.58
2022-12-19T16:30:19.613Z,16.10
2022-12-19T16:32:47.032Z,19.60
2022-12-19T16:35:24.033Z,16.70
2022-12-19T16:38:01.219Z,18.10
2022-12-19T16:40:28.320Z,17.35
2022-12-19T16:43:15.861Z,15.32
2022-12-19T16:45:42.939Z,16.23
2022-12-19T16:48:21.639Z,15.88
2022-12-19T16:50:48.552Z,15.63
2022-12-19T16:53:15.861Z,14.65
2022-12-19T16:55:43.458Z,15.45
2022-12-19T16:58:28.492Z,14.43
2022-12-19T17:00:55.963Z,15.18
2022-12-19T17:03:30.415Z,14.00
2022-12-19T17:05:57.191Z,14.63
2022-12-19T17:08:24.204Z,15.65
2022-12-19T17:10:51.649Z,15.07
2022-12-19T17:13:18.490Z,14.80
2022-12-19T17:15:49.675Z,16.13
2022-12-19T17:18:31.758Z,15.32
2022-12-19T17:20:58.956Z,16.25
2022-12-19T17:23:26.659Z,14.60
2022-12-19T17:25:55.117Z,15.57
2022-12-19T17:28:22.048Z,16.77
2022-12-19T17:30:53.813Z,16.33
2022-12-19T17:33:30.041Z,16.70
2022-12-19T17:35:57.754Z,17.05
2022-12-19T17:38:25.277Z,18.17
2022-12-19T17:40:52.735Z,17.80
2022-12-19T17:43:20.003Z,17.95
2022-12-19T17:45:48.869Z,18.67
2022-12-19T17:48:32.111Z,17.02
2022-12-19T17:51:01.487Z,15.95
2022-12-19T17:53:30.335Z,15.55
2022-12-19T17:55:57.933Z,16.00
2022-12-19T17:58:30.285Z,17.38
2022-12-19T18:00:58.092Z,16.30
2022-12-19T18:03:27.125Z,17.33
2022-12-19T18:05:55.690Z,15.32
2022-12-19T18:08:28.087Z,16.45
2022-12-19T18:10:57.497Z,16.73
2022-12-19T18:13:25.382Z,16.75
2022-12-19T18:15:53.814Z,16.52
2022-12-19T18:18:23.308Z,16.67
2022-12-19T18:20:51.379Z,16.60
2022-12-19T18:23:21.145Z,15.82
2022-12-19T18:25:48.882Z,17.00
2022-12-19T18:28:17.706Z,18.45
2022-12-19T18:30:45.528Z,17.23
2022-12-19T18:33:18.881Z,19.23
2022-12-19T18:35:49.441Z,18.88
2022-12-19T18:38:21.973Z,18.35
2022-12-19T18:40:50.834Z,18.55
2022-12-19T18:43:19.193Z,17.67
2022-12-19T18:45:48.805Z,18.20
2022-12-19T18:48:33.440Z,18.45
2022-12-19T18:51:01.622Z,17.67
2022-12-19T18:53:35.817Z,17.48
2022-12-19T18:56:05.157Z,16.60
2022-12-19T18:58:33.003Z,16.23
2022-12-19T19:01:01.018Z,17.13
2022-12-19T19:03:49.428Z,17.00
2022-12-19T19:06:23.655Z,16.98
2022-12-19T19:08:52.459Z,16.15
2022-12-19T19:11:21.030Z,16.98
2022-12-19T19:13:48.727Z,16.20
2022-12-19T19:16:20.230Z,16.92
2022-12-19T19:18:54.222Z,17.98
2022-12-19T19:21:23.441Z,18.52
2022-12-19T19:23:56.842Z,16.75
2022-12-19T19:26:24.520Z,17.42
2022-12-19T19:28:52.726Z,19.55
2022-12-19T19:31:22.031Z,18.45
2022-12-19T19:34:20.030Z,18.17
2022-12-19T19:36:50.026Z,18.17
2022-12-19T19:39:20.296Z,17.27
2022-12-19T19:41:48.733Z,17.65
2022-12-19T19:44:17.162Z,16.63
2022-12-19T19:46:45.230Z,17.17
2022-12-19T19:49:12.883Z,18.23
2022-12-19T19:51:40.411Z,15.73
2022-12-19T19:54:07.180Z,17.85
2022-12-19T19:56:33.904Z,17.35
2022-12-19T19:59:00.832Z,16.40
2022-12-19T20:01:28.004Z,17.40
2022-12-19T20:03:54.949Z,16.75
2022-12-19T20:06:21.729Z,16.55
2022-12-19T20:08:49.328Z,17.40
2022-12-19T20:11:16.341Z,16.05
2022-12-19T20:13:43.098Z,14.65
2022-12-19T20:16:12.189Z,16.13
2022-12-19T20:18:41.447Z,17.23
2022-12-19T20:21:13.196Z,16.70
2022-12-19T20:23:41.423Z,15.95
2022-12-19T20:26:08.384Z,15.23
2022-12-19T20:28:35.093Z,16.52
2022-12-19T20:31:02.116Z,16.77
2022-12-19T20:33:29.234Z,15.73
2022-12-19T20:35:57.064Z,16.45
2022-12-19T20:38:24.137Z,17.60
2022-12-19T20:40:56.024Z,17.65
2022-12-19T20:43:23.988Z,16.38
2022-12-19T20:45:50.965Z,15.50
2022-12-19T20:48:18.541Z,15.50
2022-12-19T20:50:45.340Z,15.57
2022-12-19T20:53:12.052Z,16.25
2022-12-19T20:55:38.837Z,15.77
2022-12-19T20:58:05.557Z,16.48
2022-12-19T21:00:32.300Z,15.90
2022-12-19T21:03:27.120Z,15.75
2022-12-19T21:05:55.042Z,14.32
2022-12-19T21:08:22.584Z,15.68
2022-12-19T21:10:49.938Z,14.15
2022-12-19T21:13:17.572Z,14.27
2022-12-19T21:15:46.387Z,14.27
2022-12-19T21:18:13.626Z,14.15
2022-12-19T21:20:41.880Z,14.82
2022-12-19T21:23:09.357Z,16.20
2022-12-19T21:25:37.079Z,13.85
2022-12-19T21:28:04.572Z,14.55
2022-12-19T21:30:33.689Z,14.93
2022-12-19T21:33:01.098Z,17.77
2022-12-19T21:35:28.414Z,18.02
2022-12-19T21:37:57.317Z,17.85
2022-12-19T21:40:25.073Z,19.45
2022-12-19T21:42:52.391Z,17.60
2022-12-19T21:45:20.933Z,16.33
2022-12-19T21:47:49.268Z,15.68
2022-12-19T21:50:16.391Z,15.45
2022-12-19T21:52:43.983Z,15.00
2022-12-19T21:55:11.325Z,16.25
2022-12-19T21:57:42.439Z,16.38
2022-12-19T22:00:11.167Z,16.10
2022-12-19T22:02:38.276Z,14.77
2022-12-19T22:05:09.442Z,17.05
2022-12-19T22:07:37.172Z,22.88
2022-12-19T22:10:04.388Z,22.95
2022-12-19T22:12:31.209Z,26.08
2022-12-19T22:14:58.583Z,30.15
2022-12-19T22:17:25.313Z,18.10
2022-12-19T22:19:52.036Z,16.42
2022-12-19T22:22:18.710Z,16.58
2022-12-19T22:24:45.441Z,15.23
2022-12-19T22:27:12.125Z,16.17
2022-12-19T22:29:38.801Z,16.27
2022-12-19T22:32:05.799Z,16.67
2022-12-19T22:34:32.568Z,14.27
2022-12-19T22:36:59.422Z,16.17
2022-12-19T22:39:26.216Z,15.25
2022-12-19T22:41:52.924Z,15.23
2022-12-19T22:44:24.027Z,14.95
2022-12-19T22:46:51.451Z,13.48
2022-12-19T22:49:18.380Z,14.13
2022-12-19T22:51:46.140Z,14.40
2022-12-19T22:54:13.723Z,14.77
2022-12-19T22:56:40.850Z,15.60
2022-12-19T22:59:08.490Z,13.70
2022-12-19T23:01:38.057Z,15.15
2022-12-19T23:04:06.009Z,14.43
2022-12-19T23:06:34.123Z,12.85
2022-12-19T23:09:01.252Z,15.00
2022-12-19T23:11:34.270Z,14.70
2022-12-19T23:14:02.063Z,15.52
2022-12-19T23:16:28.913Z,17.13
2022-12-19T23:18:55.695Z,15.93
2022-12-19T23:21:23.778Z,15.55
2022-12-19T23:23:52.122Z,15.35
2022-12-19T23:26:40.244Z,14.52
2022-12-19T23:29:09.174Z,15.88
2022-12-19T23:31:36.040Z,14.45
2022-12-19T23:34:02.824Z,15.32
2022-12-19T23:39:16.346Z,14.63
2022-12-19T23:41:43.194Z,12.85
2022-12-19T23:44:10.633Z,13.45
2022-12-19T23:46:37.818Z,13.95
2022-12-19T23:49:04.681Z,14.32
2022-12-19T23:51:31.839Z,14.25
2022-12-19T23:53:58.556Z,15.48
2022-12-19T23:56:28.024Z,15.27
2022-12-19T23:58:55.396Z,15.88
